Time;durP1;ratioP1;P1;durP2;ratioP2;P2;SDS_P1;SDS_P2;PMS_P1;PMS_P2;Temp;Humidity;BMP_temperature;BMP_pressure;BME280_temperature;BME280_humidity;BME280_pressure;Samples;Min_cycle;Max_cycle;Signal;HPM_P1;HPM_P2
2024/04/22 00:02:00;;;;;;;7.93;2.13;;;;;;;;;;5370282;26;20567;-47
2024/04/22 00:04:25;;;;;;;7.38;2.10;;;;;;;;;;5372015;26;20016;-48
2024/04/22 00:06:51;;;;;;;6.53;2.67;;;;;;;;;;5372823;26;20007;-53
2024/04/22 00:09:17;;;;;;;6.78;2.20;;;;;;;;;;5341050;26;20438;-52
2024/04/22 00:11:42;;;;;;;4.13;1.80;;;;;;;;;;5370777;26;20023;-48
2024/04/22 00:14:11;;;;;;;3.58;1.70;;;;;;;;;;5370884;26;20490;-51
2024/04/22 00:16:39;;;;;;;6.40;1.98;;;;;;;;;;5341363;26;20001;-46
2024/04/22 00:19:04;;;;;;;7.97;2.10;;;;;;;;;;5370672;26;20005;-49
2024/04/22 00:21:30;;;;;;;3.65;1.98;;;;;;;;;;5392413;26;20019;-50
2024/04/22 00:23:56;;;;;;;5.43;2.00;;;;;;;;;;5373462;26;20468;-50
2024/04/22 00:26:22;;;;;;;6.13;2.38;;;;;;;;;;5374002;26;20004;-48
2024/04/22 00:28:48;;;;;;;4.75;1.73;;;;;;;;;;5373151;26;20008;-52
2024/04/22 00:31:14;;;;;;;5.25;1.90;;;;;;;;;;5375161;26;20467;-52
2024/04/22 00:33:40;;;;;;;7.72;2.08;;;;;;;;;;5315472;26;20062;-52
2024/04/22 00:36:06;;;;;;;4.68;1.73;;;;;;;;;;5375291;26;20486;-53
2024/04/22 00:38:31;;;;;;;5.25;1.77;;;;;;;;;;5374671;26;20011;-52
2024/04/22 00:40:57;;;;;;;5.50;2.13;;;;;;;;;;5374911;26;20012;-47
2024/04/22 00:43:23;;;;;;;4.80;1.90;;;;;;;;;;5372403;26;20012;-47
2024/04/22 00:45:50;;;;;;;5.63;2.10;;;;;;;;;;5396451;26;20535;-48
2024/04/22 00:48:16;;;;;;;6.07;1.70;;;;;;;;;;5408914;26;20019;-49
2024/04/22 00:50:42;;;;;;;3.85;1.75;;;;;;;;;;5410418;26;20487;-50
2024/04/22 00:53:09;;;;;;;5.70;1.80;;;;;;;;;;5343324;26;20016;-50
2024/04/22 00:55:36;;;;;;;4.38;1.90;;;;;;;;;;5374659;26;20040;-48
2024/04/22 00:58:02;;;;;;;4.28;1.70;;;;;;;;;;5374703;26;20093;-47
2024/04/22 01:00:28;;;;;;;3.95;1.67;;;;;;;;;;5344389;26;20004;-49
2024/04/22 01:02:54;;;;;;;6.82;2.60;;;;;;;;;;5375007;26;20017;-46
2024/04/22 01:05:19;;;;;;;4.93;2.17;;;;;;;;;;5375031;26;20058;-47
2024/04/22 01:07:45;;;;;;;3.90;1.83;;;;;;;;;;5374926;26;20005;-49
2024/04/22 01:10:11;;;;;;;4.65;1.77;;;;;;;;;;5373103;26;20008;-47
2024/04/22 01:12:37;;;;;;;9.00;2.05;;;;;;;;;;5375066;26;20000;-48
2024/04/22 01:15:04;;;;;;;4.40;2.00;;;;;;;;;;5374333;26;20027;-50
2024/04/22 01:17:34;;;;;;;5.05;2.03;;;;;;;;;;5374767;26;20456;-48
2024/04/22 01:19:59;;;;;;;;;;;;;;;;;;5375874;26;20020;-50
2024/04/22 01:22:25;;;;;;;7.97;2.00;;;;;;;;;;5374827;26;19958;-50
2024/04/22 01:24:51;;;;;;;6.97;1.98;;;;;;;;;;5395595;26;20072;-52
2024/04/22 01:27:17;;;;;;;5.50;2.10;;;;;;;;;;5343229;26;20008;-50
2024/04/22 01:29:43;;;;;;;5.43;1.80;;;;;;;;;;5372750;26;20019;-49
2024/04/22 01:32:08;;;;;;;4.63;1.73;;;;;;;;;;5372361;26;20066;-47
2024/04/22 01:34:34;;;;;;;7.07;2.00;;;;;;;;;;5374133;26;20019;-49
2024/04/22 01:37:00;;;;;;;3.17;1.63;;;;;;;;;;5374342;26;20005;-47
2024/04/22 01:39:25;;;;;;;4.28;2.03;;;;;;;;;;5374865;26;20015;-48
2024/04/22 01:41:51;;;;;;;11.45;2.42;;;;;;;;;;5372689;26;20322;-49
2024/04/22 01:44:17;;;;;;;3.92;2.00;;;;;;;;;;5372213;26;20439;-50
2024/04/22 01:46:43;;;;;;;5.22;2.03;;;;;;;;;;5407492;26;20047;-47
2024/04/22 01:49:09;;;;;;;2.65;1.80;;;;;;;;;;5377905;26;19996;-47
2024/04/22 01:51:34;;;;;;;5.93;2.35;;;;;;;;;;5407303;26;20420;-48
2024/04/22 01:54:00;;;;;;;7.03;2.05;;;;;;;;;;5349209;26;20019;-49
2024/04/22 01:56:26;;;;;;;7.68;2.10;;;;;;;;;;5377483;26;20472;-51
2024/04/22 01:58:52;;;;;;;6.07;2.20;;;;;;;;;;5406197;26;20050;-48
2024/04/22 02:01:18;;;;;;;6.00;1.80;;;;;;;;;;5407048;26;20023;-50
2024/04/22 02:03:43;;;;;;;4.07;1.92;;;;;;;;;;5409399;26;20452;-54
2024/04/22 02:06:09;;;;;;;5.60;1.98;;;;;;;;;;5385146;26;20016;-49
2024/04/22 02:08:35;;;;;;;4.40;1.70;;;;;;;;;;5373939;26;20008;-46
2024/04/22 02:11:01;;;;;;;7.80;2.13;;;;;;;;;;5374258;26;20008;-50
2024/04/22 02:13:27;;;;;;;3.88;1.85;;;;;;;;;;5374130;26;20000;-49
2024/04/22 02:15:53;;;;;;;3.17;1.70;;;;;;;;;;5373586;26;20000;-45
2024/04/22 02:18:19;;;;;;;3.80;1.90;;;;;;;;;;5373406;26;20019;-50
2024/04/22 02:21:05;;;;;;;4.07;1.90;;;;;;;;;;5385953;26;20464;-46
2024/04/22 02:23:30;;;;;;;4.15;1.92;;;;;;;;;;5401613;26;20015;-51
2024/04/22 02:25:56;;;;;;;7.97;2.30;;;;;;;;;;5317498;26;20015;-48
2024/04/22 02:28:22;;;;;;;5.57;2.22;;;;;;;;;;5373962;26;20004;-48
2024/04/22 02:30:47;;;;;;;8.45;2.03;;;;;;;;;;5374192;26;20004;-55
2024/04/22 02:33:13;;;;;;;7.45;2.97;;;;;;;;;;5373313;26;20008;-51
2024/04/22 02:35:40;;;;;;;8.70;2.55;;;;;;;;;;5371988;26;20059;-49
2024/04/22 02:38:05;;;;;;;6.43;2.15;;;;;;;;;;5392944;26;20375;-50
2024/04/22 02:40:31;;;;;;;4.95;2.28;;;;;;;;;;5409119;26;20075;-51
2024/04/22 02:42:57;;;;;;;3.80;2.63;;;;;;;;;;5406894;26;20090;-49
2024/04/22 02:45:26;;;;;;;6.82;2.58;;;;;;;;;;5392176;26;20016;-48
2024/04/22 02:47:51;;;;;;;5.18;2.42;;;;;;;;;;5371970;26;20054;-48
2024/04/22 02:50:17;;;;;;;13.05;3.35;;;;;;;;;;5342701;26;20488;-50
2024/04/22 02:52:43;;;;;;;5.53;1.88;;;;;;;;;;5370776;26;20157;-48
2024/04/22 02:55:09;;;;;;;8.38;2.40;;;;;;;;;;5371686;26;20004;-47
2024/04/22 02:57:35;;;;;;;9.38;2.80;;;;;;;;;;5373777;26;20031;-50
2024/04/22 03:00:01;;;;;;;6.63;2.40;;;;;;;;;;5373520;26;20074;-46
2024/04/22 03:02:28;;;;;;;7.78;2.30;;;;;;;;;;5364922;26;20066;-47
2024/04/22 03:04:53;;;;;;;9.75;2.67;;;;;;;;;;5373226;26;20008;-50
2024/04/22 03:07:19;;;;;;;4.13;2.30;;;;;;;;;;5373343;26;20593;-48
2024/04/22 03:09:45;;;;;;;10.57;2.60;;;;;;;;;;5373214;26;20008;-48
2024/04/22 03:12:11;;;;;;;4.25;2.00;;;;;;;;;;5373326;26;19996;-48
2024/04/22 03:14:37;;;;;;;7.85;2.15;;;;;;;;;;5369554;26;20483;-49
2024/04/22 03:17:03;;;;;;;5.28;2.13;;;;;;;;;;5371621;26;20048;-48
2024/04/22 03:19:29;;;;;;;6.35;2.47;;;;;;;;;;5372025;26;19996;-48
2024/04/22 03:21:54;;;;;;;4.63;2.13;;;;;;;;;;5392579;26;20040;-51
2024/04/22 03:24:20;;;;;;;7.45;2.25;;;;;;;;;;5342040;26;20008;-48
2024/04/22 03:26:46;;;;;;;8.38;1.95;;;;;;;;;;5372632;26;20016;-53
2024/04/22 03:29:12;;;;;;;6.90;2.40;;;;;;;;;;5368357;26;20008;-48
2024/04/22 03:31:37;;;;;;;6.38;2.22;;;;;;;;;;5376794;26;20080;-50
2024/04/22 03:34:03;;;;;;;3.75;2.03;;;;;;;;;;5404928;26;20494;-52
2024/04/22 03:36:29;;;;;;;10.50;2.47;;;;;;;;;;5375937;26;20042;-49
2024/04/22 03:38:55;;;;;;;7.03;2.15;;;;;;;;;;5405806;26;20682;-50
2024/04/22 03:41:20;;;;;;;6.03;2.42;;;;;;;;;;5406607;26;20011;-47
2024/04/22 03:43:46;;;;;;;7.60;2.50;;;;;;;;;;5408138;26;20004;-56
2024/04/22 03:51:41;;;;;;;8.75;2.25;;;;;;;;;;5370616;26;20508;-49
2024/04/22 03:54:06;;;;;;;6.63;2.70;;;;;;;;;;5372556;26;20019;-50
2024/04/22 03:56:32;;;;;;;7.28;2.95;;;;;;;;;;5373609;26;20475;-49
2024/04/22 03:58:57;;;;;;;8.00;2.45;;;;;;;;;;5376060;26;20008;-49
2024/04/22 04:01:23;;;;;;;4.22;2.33;;;;;;;;;;5375894;26;20004;-50
2024/04/22 04:03:49;;;;;;;7.82;3.03;;;;;;;;;;5374028;26;20033;-51
2024/04/22 04:06:14;;;;;;;10.80;3.00;;;;;;;;;;5374379;26;20437;-49
2024/04/22 04:08:40;;;;;;;7.20;2.33;;;;;;;;;;5375363;26;20015;-49
2024/04/22 04:11:12;;;;;;;9.88;2.78;;;;;;;;;;5375591;26;20008;-51
2024/04/22 04:13:40;;;;;;;9.30;3.00;;;;;;;;;;5376028;26;20005;-52
2024/04/22 04:16:09;;;;;;;11.70;2.50;;;;;;;;;;5377885;26;20024;-49
2024/04/22 04:18:38;;;;;;;5.57;2.65;;;;;;;;;;5410953;26;20043;-51
2024/04/22 04:21:04;;;;;;;8.02;2.53;;;;;;;;;;5406955;26;19999;-48
2024/04/22 04:23:29;;;;;;;8.30;2.70;;;;;;;;;;5373848;26;20835;-49
2024/04/22 04:25:55;;;;;;;7.57;2.97;;;;;;;;;;5374389;26;20401;-48
2024/04/22 04:28:21;;;;;;;7.85;3.25;;;;;;;;;;5373387;26;20016;-47
2024/04/22 04:30:56;;;;;;;8.75;3.00;;;;;;;;;;5375168;26;20552;-51
2024/04/22 04:33:21;;;;;;;11.30;3.13;;;;;;;;;;5375365;26;20037;-47
2024/04/22 04:36:17;;;;;;;10.80;3.58;;;;;;;;;;5373415;26;20448;-49
2024/04/22 04:38:43;;;;;;;6.63;2.67;;;;;;;;;;5358242;26;20000;-53
2024/04/22 04:41:11;;;;;;;14.70;4.17;;;;;;;;;;5344234;26;20000;-55
2024/04/22 04:43:37;;;;;;;8.77;3.22;;;;;;;;;;5373812;26;20483;-50
2024/04/22 04:46:02;;;;;;;6.78;3.30;;;;;;;;;;5373420;26;20016;-56
2024/04/22 04:48:28;;;;;;;7.22;3.40;;;;;;;;;;5441823;26;20357;-57
2024/04/22 04:50:54;;;;;;;11.98;4.57;;;;;;;;;;5446312;26;21020;-56
2024/04/22 04:53:20;;;;;;;10.02;3.80;;;;;;;;;;5445962;26;20015;-55
2024/04/22 04:55:46;;;;;;;7.18;3.28;;;;;;;;;;5445937;26;20026;-53
2024/04/22 04:58:12;;;;;;;8.25;3.50;;;;;;;;;;5396638;26;20008;-54
2024/04/22 05:00:39;;;;;;;10.65;3.65;;;;;;;;;;5373982;26;20004;-56
2024/04/22 05:03:04;;;;;;;9.18;3.15;;;;;;;;;;5374366;26;20004;-55
2024/04/22 05:05:30;;;;;;;8.50;3.30;;;;;;;;;;5375114;26;20018;-52
2024/04/22 05:07:56;;;;;;;9.07;4.18;;;;;;;;;;5407020;26;20033;-47
2024/04/22 05:10:22;;;;;;;9.38;3.85;;;;;;;;;;5388238;26;20000;-50
2024/04/22 05:12:48;;;;;;;12.68;3.88;;;;;;;;;;5381865;26;20008;-52
2024/04/22 05:15:14;;;;;;;10.32;3.30;;;;;;;;;;5408359;26;20489;-48
2024/04/22 05:17:40;;;;;;;8.63;3.80;;;;;;;;;;5371092;26;20004;-47
2024/04/22 05:20:06;;;;;;;11.27;3.78;;;;;;;;;;5381249;26;20000;-48
2024/04/22 05:22:31;;;;;;;11.32;3.90;;;;;;;;;;5381016;26;20004;-47
2024/04/22 05:24:57;;;;;;;10.50;3.88;;;;;;;;;;5374226;26;20000;-52
2024/04/22 05:27:22;;;;;;;7.82;3.80;;;;;;;;;;5374718;26;20023;-50
2024/04/22 05:29:49;;;;;;;14.02;3.63;;;;;;;;;;5374451;26;20016;-48
2024/04/22 05:32:15;;;;;;;13.70;4.05;;;;;;;;;;5373947;26;20012;-47
2024/04/22 05:37:25;;;;;;;15.52;3.95;;;;;;;;;;5374354;26;20023;-49
2024/04/22 05:39:50;;;;;;;10.90;3.63;;;;;;;;;;5372845;26;20458;-52
2024/04/22 05:42:16;;;;;;;8.20;3.70;;;;;;;;;;5372753;26;20017;-51
2024/04/22 05:44:42;;;;;;;10.32;4.00;;;;;;;;;;5379919;26;20506;-48
2024/04/22 05:47:08;;;;;;;10.45;3.50;;;;;;;;;;5378391;26;20019;-53
2024/04/22 05:49:33;;;;;;;15.57;3.88;;;;;;;;;;5393517;26;20004;-52
2024/04/22 05:51:59;;;;;;;9.77;3.90;;;;;;;;;;5374196;26;20036;-48
2024/04/22 05:54:25;;;;;;;8.30;4.00;;;;;;;;;;5374366;26;20004;-49
2024/04/22 05:56:50;;;;;;;10.60;3.88;;;;;;;;;;5374578;26;20360;-50
2024/04/22 05:59:16;;;;;;;7.65;3.65;;;;;;;;;;5371787;26;20026;-50
2024/04/22 06:01:42;;;;;;;13.68;4.13;;;;;;;;;;5404293;26;20482;-50
2024/04/22 06:04:08;;;;;;;11.70;4.20;;;;;;;;;;5409097;26;20008;-48
2024/04/22 06:06:36;;;;;;;9.68;4.35;;;;;;;;;;5407589;26;20358;-47
2024/04/22 06:09:22;;;;;;;12.33;4.10;;;;;;;;;;5404068;26;20023;-50
2024/04/22 06:11:48;;;;;;;15.02;3.30;;;;;;;;;;5409265;26;20010;-51
2024/04/22 06:14:14;;;;;;;14.95;4.00;;;;;;;;;;5407274;26;20011;-54
2024/04/22 06:16:40;;;;;;;10.40;4.28;;;;;;;;;;5408856;26;20052;-49
2024/04/22 06:19:07;;;;;;;10.10;3.42;;;;;;;;;;5400351;26;20068;-48
2024/04/22 06:21:34;;;;;;;7.95;4.10;;;;;;;;;;5361642;26;20105;-52
2024/04/22 06:24:00;;;;;;;8.10;3.70;;;;;;;;;;5372537;26;20016;-49
2024/04/22 06:26:26;;;;;;;16.15;4.65;;;;;;;;;;5373941;26;20008;-50
2024/04/22 06:28:52;;;;;;;14.13;4.22;;;;;;;;;;5371943;26;20555;-52
2024/04/22 06:31:18;;;;;;;16.98;4.03;;;;;;;;;;5374325;26;20008;-53
2024/04/22 06:33:44;;;;;;;18.98;3.97;;;;;;;;;;5372060;26;20007;-57
2024/04/22 06:36:10;;;;;;;15.20;4.18;;;;;;;;;;5374065;26;20008;-51
2024/04/22 06:38:36;;;;;;;13.00;3.58;;;;;;;;;;5371971;26;20008;-56
2024/04/22 06:41:02;;;;;;;13.13;3.85;;;;;;;;;;5372545;26;20015;-53
2024/04/22 06:43:28;;;;;;;22.42;4.47;;;;;;;;;;5342729;26;20008;-54
2024/04/22 06:45:54;;;;;;;16.45;3.88;;;;;;;;;;5396048;26;20314;-51
2024/04/22 06:48:19;;;;;;;10.07;3.42;;;;;;;;;;5407552;26;20000;-49
2024/04/22 06:50:47;;;;;;;8.35;3.30;;;;;;;;;;5407336;26;20014;-52
2024/04/22 06:53:13;;;;;;;12.18;3.50;;;;;;;;;;5407682;26;20032;-51
2024/04/22 06:55:39;;;;;;;7.95;2.97;;;;;;;;;;5408884;26;20475;-51
2024/04/22 06:58:05;;;;;;;8.95;3.58;;;;;;;;;;5407014;26;19995;-53
2024/04/22 07:00:30;;;;;;;8.88;3.75;;;;;;;;;;5402816;26;20024;-54
2024/04/22 07:02:56;;;;;;;7.25;3.17;;;;;;;;;;5371269;26;20652;-46
2024/04/22 07:05:22;;;;;;;10.18;3.88;;;;;;;;;;5373660;26;20004;-54
2024/04/22 07:07:48;;;;;;;7.20;3.00;;;;;;;;;;5371248;26;20040;-54
2024/04/22 07:10:14;;;;;;;12.38;3.33;;;;;;;;;;5342359;26;20372;-49
2024/04/22 07:12:43;;;;;;;12.55;2.95;;;;;;;;;;5373470;26;20000;-51
2024/04/22 07:15:09;;;;;;;7.82;2.92;;;;;;;;;;5374244;26;20418;-52
2024/04/22 07:17:36;;;;;;;9.40;3.00;;;;;;;;;;5342156;26;20548;-52
2024/04/22 07:20:01;;;;;;;7.05;2.70;;;;;;;;;;5373801;26;20019;-51
2024/04/22 07:22:29;;;;;;;5.18;2.42;;;;;;;;;;5395138;26;20012;-51
2024/04/22 07:24:55;;;;;;;8.13;2.83;;;;;;;;;;5406210;26;20007;-51
2024/04/22 07:27:21;;;;;;;10.15;3.03;;;;;;;;;;5377132;26;20085;-55
2024/04/22 07:29:48;;;;;;;7.70;2.45;;;;;;;;;;5342173;26;20081;-50
2024/04/22 07:32:14;;;;;;;8.55;2.58;;;;;;;;;;5375000;26;20004;-50
2024/04/22 07:34:40;;;;;;;7.82;3.53;;;;;;;;;;5374392;26;20728;-49
2024/04/22 07:37:18;;;;;;;6.93;2.38;;;;;;;;;;5376652;26;20020;-52
2024/04/22 07:39:45;;;;;;;7.68;3.10;;;;;;;;;;5377046;26;20081;-53
2024/04/22 07:42:11;;;;;;;9.65;2.00;;;;;;;;;;5374332;26;20418;-49
2024/04/22 07:44:37;;;;;;;6.72;2.10;;;;;;;;;;5376366;26;20044;-55
2024/04/22 07:47:02;;;;;;;5.15;2.15;;;;;;;;;;5375029;26;20476;-52
2024/04/22 07:49:28;;;;;;;7.80;2.40;;;;;;;;;;5394170;26;20471;-48
2024/04/22 07:51:54;;;;;;;11.55;2.90;;;;;;;;;;5411423;26;20015;-50
2024/04/22 07:54:20;;;;;;;5.60;1.83;;;;;;;;;;5410105;26;20008;-50
2024/04/22 07:56:46;;;;;;;7.30;2.20;;;;;;;;;;5406798;26;20007;-54
2024/04/22 07:59:12;;;;;;;8.35;2.30;;;;;;;;;;5376008;26;20514;-52
2024/04/22 08:01:38;;;;;;;3.63;1.63;;;;;;;;;;5374082;26;20023;-51
2024/04/22 08:04:05;;;;;;;5.47;1.77;;;;;;;;;;5374205;26;20475;-54
2024/04/22 08:06:39;;;;;;;8.02;1.98;;;;;;;;;;5374089;26;20004;-51
2024/04/22 08:09:05;;;;;;;5.55;1.67;;;;;;;;;;5395798;26;20019;-53
2024/04/22 08:11:31;;;;;;;5.93;2.20;;;;;;;;;;5391424;26;20032;-54
2024/04/22 08:13:56;;;;;;;6.38;2.00;;;;;;;;;;5395507;26;20023;-53
2024/04/22 08:16:22;;;;;;;5.88;2.40;;;;;;;;;;5345055;26;20028;-53
2024/04/22 08:18:48;;;;;;;5.00;1.80;;;;;;;;;;5376846;26;20019;-49
2024/04/22 08:21:14;;;;;;;6.45;2.15;;;;;;;;;;5365736;26;20239;-52
2024/04/22 08:23:41;;;;;;;6.03;2.05;;;;;;;;;;5410937;26;20008;-57
2024/04/22 08:26:07;;;;;;;6.10;2.05;;;;;;;;;;5409689;26;20000;-56
2024/04/22 08:28:32;;;;;;;6.38;1.70;;;;;;;;;;5383768;26;20079;-57
2024/04/22 08:31:05;;;;;;;5.28;1.80;;;;;;;;;;5393289;26;20015;-55
2024/04/22 08:33:31;;;;;;;4.32;1.83;;;;;;;;;;5392719;26;20409;-53
2024/04/22 08:35:56;;;;;;;5.82;1.60;;;;;;;;;;5390190;26;20020;-56
2024/04/22 08:38:22;;;;;;;3.63;1.85;;;;;;;;;;5382978;26;20356;-56
2024/04/22 08:40:49;;;;;;;6.72;1.40;;;;;;;;;;5375039;26;20019;-55
2024/04/22 08:43:15;;;;;;;7.97;1.75;;;;;;;;;;5392849;26;20015;-53
2024/04/22 08:45:44;;;;;;;7.72;2.20;;;;;;;;;;5383636;26;20020;-54
2024/04/22 08:48:10;;;;;;;9.65;2.13;;;;;;;;;;5374426;26;20012;-55
2024/04/22 08:50:36;;;;;;;4.90;1.70;;;;;;;;;;5373691;26;20107;-55
2024/04/22 08:53:03;;;;;;;4.80;2.15;;;;;;;;;;5373697;26;20495;-56
2024/04/22 08:55:29;;;;;;;5.85;1.55;;;;;;;;;;5375756;26;20015;-55
2024/04/22 08:57:57;;;;;;;5.78;1.70;;;;;;;;;;5375866;26;20032;-58
2024/04/22 09:00:22;;;;;;;7.10;2.13;;;;;;;;;;5344849;26;20072;-55
2024/04/22 09:02:48;;;;;;;7.18;1.42;;;;;;;;;;5375472;26;20008;-53
2024/04/22 09:05:14;;;;;;;3.33;1.60;;;;;;;;;;5375251;26;20000;-55
2024/04/22 09:07:49;;;;;;;5.25;1.70;;;;;;;;;;5344174;26;20082;-52
2024/04/22 09:10:15;;;;;;;5.53;1.80;;;;;;;;;;5375510;26;20019;-55
2024/04/22 09:12:40;;;;;;;8.70;2.05;;;;;;;;;;5375062;26;20020;-51
2024/04/22 09:15:06;;;;;;;6.93;3.17;;;;;;;;;;5390855;26;20011;-50
2024/04/22 09:17:32;;;;;;;6.47;2.05;;;;;;;;;;5408862;26;20003;-52
2024/04/22 09:19:58;;;;;;;5.60;1.70;;;;;;;;;;5368439;26;20077;-53
2024/04/22 09:22:24;;;;;;;4.25;1.55;;;;;;;;;;5387147;26;20016;-56
2024/04/22 09:24:51;;;;;;;6.40;2.17;;;;;;;;;;5375121;26;20005;-51
2024/04/22 09:27:18;;;;;;;4.55;1.50;;;;;;;;;;5388473;26;20008;-56
2024/04/22 09:29:44;;;;;;;7.82;2.03;;;;;;;;;;5374551;26;20004;-55
2024/04/22 09:32:10;;;;;;;5.13;1.80;;;;;;;;;;5374881;26;20038;-51
2024/04/22 09:34:37;;;;;;;7.45;2.28;;;;;;;;;;5388849;26;20019;-57
2024/04/22 09:37:03;;;;;;;7.30;1.70;;;;;;;;;;5373436;26;20150;-49
2024/04/22 09:39:30;;;;;;;7.35;1.80;;;;;;;;;;5386132;26;20544;-53
2024/04/22 09:41:56;;;;;;;6.13;2.10;;;;;;;;;;5386077;26;20007;-50
2024/04/22 09:44:22;;;;;;;4.35;1.83;;;;;;;;;;5334581;26;20011;-52
2024/04/22 09:46:50;;;;;;;3.22;1.70;;;;;;;;;;5394041;26;20093;-51
2024/04/22 09:49:17;;;;;;;5.25;1.65;;;;;;;;;;5386175;26;20005;-52
2024/04/22 09:51:44;;;;;;;4.05;1.77;;;;;;;;;;5374421;26;20012;-49
2024/04/22 09:54:10;;;;;;;3.60;1.50;;;;;;;;;;5372057;26;20004;-52
2024/04/22 09:56:37;;;;;;;3.83;1.30;;;;;;;;;;5372346;26;20478;-50
2024/04/22 09:59:03;;;;;;;4.78;1.70;;;;;;;;;;5373970;26;20004;-53
2024/04/22 10:01:29;;;;;;;5.60;1.52;;;;;;;;;;5377610;26;20003;-50
2024/04/22 10:03:55;;;;;;;3.30;1.70;;;;;;;;;;5409699;26;20003;-52
2024/04/22 10:06:22;;;;;;;5.28;1.55;;;;;;;;;;5407929;26;20607;-52
2024/04/22 10:08:48;;;;;;;4.80;1.63;;;;;;;;;;5390755;26;20059;-52
2024/04/22 10:11:16;;;;;;;3.28;1.60;;;;;;;;;;5372569;26;20036;-49
2024/04/22 10:13:45;;;;;;;3.72;1.67;;;;;;;;;;5374258;26;20030;-51
2024/04/22 10:16:14;;;;;;;5.15;1.20;;;;;;;;;;5374932;26;20349;-53
2024/04/22 10:18:48;;;;;;;4.05;1.60;;;;;;;;;;5375040;26;20097;-51
2024/04/22 10:21:14;;;;;;;3.58;1.40;;;;;;;;;;5343221;26;20439;-49
2024/04/22 10:23:40;;;;;;;4.05;1.50;;;;;;;;;;5372563;26;20015;-55
2024/04/22 10:26:16;;;;;;;4.20;1.42;;;;;;;;;;5372498;26;20019;-49
2024/04/22 10:28:44;;;;;;;9.70;1.30;;;;;;;;;;5372898;26;20047;-52
2024/04/22 10:31:15;;;;;;;3.80;1.10;;;;;;;;;;5342868;26;20058;-53
2024/04/22 10:33:41;;;;;;;2.58;1.10;;;;;;;;;;5313729;26;20027;-51
2024/04/22 10:36:07;;;;;;;1.52;0.80;;;;;;;;;;5373974;26;20032;-51
2024/04/22 10:38:34;;;;;;;7.63;1.20;;;;;;;;;;5372039;26;20011;-54
2024/04/22 10:41:00;;;;;;;1.73;0.90;;;;;;;;;;5374383;26;20008;-51
2024/04/22 10:43:26;;;;;;;2.75;0.85;;;;;;;;;;5373587;26;20004;-54
2024/04/22 10:45:51;;;;;;;5.05;1.08;;;;;;;;;;5341955;26;20001;-52
2024/04/22 10:48:17;;;;;;;2.45;1.00;;;;;;;;;;5373427;26;20482;-51
2024/04/22 10:50:46;;;;;;;4.80;1.20;;;;;;;;;;5373076;26;20048;-52
2024/04/22 10:53:12;;;;;;;3.28;1.08;;;;;;;;;;5372929;26;20004;-53
2024/04/22 10:55:37;;;;;;;3.65;1.10;;;;;;;;;;5371714;26;20004;-51
2024/04/22 10:58:04;;;;;;;4.75;0.80;;;;;;;;;;5373039;26;20004;-54
2024/04/22 11:00:30;;;;;;;5.18;1.10;;;;;;;;;;5313695;26;20051;-51
2024/04/22 11:02:58;;;;;;;1.60;1.00;;;;;;;;;;5371464;26;20008;-52
2024/04/22 11:05:23;;;;;;;3.92;1.48;;;;;;;;;;5371826;26;20051;-52
2024/04/22 11:07:49;;;;;;;4.88;1.10;;;;;;;;;;5372677;26;20016;-53
2024/04/22 11:10:15;;;;;;;2.88;1.17;;;;;;;;;;5371554;26;20000;-50
2024/04/22 11:12:41;;;;;;;6.78;1.42;;;;;;;;;;5371437;26;20492;-49
2024/04/22 11:15:07;;;;;;;4.03;1.13;;;;;;;;;;5373420;26;20098;-50
2024/04/22 11:17:33;;;;;;;3.72;1.10;;;;;;;;;;5342034;26;20000;-51
2024/04/22 11:20:05;;;;;;;2.08;1.00;;;;;;;;;;5373113;26;20401;-54
2024/04/22 11:22:31;;;;;;;4.47;1.30;;;;;;;;;;5398070;26;20404;-52
2024/04/22 11:24:57;;;;;;;2.80;1.20;;;;;;;;;;5405843;26;20011;-53
2024/04/22 11:27:22;;;;;;;2.33;1.20;;;;;;;;;;5378288;26;20479;-52
2024/04/22 11:29:48;;;;;;;2.28;1.25;;;;;;;;;;5372117;26;20387;-50
2024/04/22 11:32:13;;;;;;;3.38;1.30;;;;;;;;;;5372372;26;20004;-52
2024/04/22 11:34:39;;;;;;;3.17;1.38;;;;;;;;;;5372433;26;20004;-53
2024/04/22 11:37:07;;;;;;;8.38;1.50;;;;;;;;;;5372460;26;20329;-53
2024/04/22 11:39:34;;;;;;;3.90;1.35;;;;;;;;;;5372428;26;20008;-55
2024/04/22 11:42:00;;;;;;;4.22;1.58;;;;;;;;;;5370625;26;20008;-49
2024/04/22 11:44:26;;;;;;;3.25;1.45;;;;;;;;;;5370063;26;20032;-55
2024/04/22 11:46:51;;;;;;;8.63;3.83;;;;;;;;;;5369519;26;20001;-53
2024/04/22 11:49:17;;;;;;;6.22;1.80;;;;;;;;;;5340350;26;20019;-54
2024/04/22 11:51:43;;;;;;;5.05;1.40;;;;;;;;;;5370115;26;20012;-51
2024/04/22 11:54:09;;;;;;;2.17;1.30;;;;;;;;;;5370018;26;20041;-53
2024/04/22 11:56:35;;;;;;;5.65;1.20;;;;;;;;;;5313339;26;20008;-52
2024/04/22 11:59:05;;;;;;;3.72;1.25;;;;;;;;;;5341053;26;20022;-54
2024/04/22 12:01:32;;;;;;;2.22;1.25;;;;;;;;;;5370155;26;20023;-50
2024/04/22 12:03:58;;;;;;;1.88;1.20;;;;;;;;;;5341379;26;20008;-50
2024/04/22 12:06:24;;;;;;;5.38;1.13;;;;;;;;;;5370381;26;20019;-53
2024/04/22 12:08:50;;;;;;;2.97;1.27;;;;;;;;;;5370042;26;20012;-52
2024/04/22 12:11:16;;;;;;;3.58;1.10;;;;;;;;;;5341088;26;20038;-51
2024/04/22 12:13:42;;;;;;;3.33;1.40;;;;;;;;;;5370330;26;20004;-54
2024/04/22 12:16:07;;;;;;;1.10;1.00;;;;;;;;;;5372374;26;20000;-52
2024/04/22 12:18:33;;;;;;;2.75;1.30;;;;;;;;;;5385849;26;20062;-56
2024/04/22 12:20:59;;;;;;;3.25;1.25;;;;;;;;;;5402033;26;20008;-52
2024/04/22 12:23:25;;;;;;;2.35;0.95;;;;;;;;;;5411212;26;20482;-56
2024/04/22 12:25:53;;;;;;;1.88;1.02;;;;;;;;;;5408514;26;20313;-51
2024/04/22 12:28:19;;;;;;;3.10;1.10;;;;;;;;;;5399480;26;20012;-51
2024/04/22 12:30:45;;;;;;;4.72;1.30;;;;;;;;;;5373157;26;20000;-55
2024/04/22 12:33:11;;;;;;;3.75;1.10;;;;;;;;;;5373357;26;20015;-53
2024/04/22 12:35:38;;;;;;;6.65;2.05;;;;;;;;;;5375072;26;20048;-52
2024/04/22 12:38:04;;;;;;;2.45;0.90;;;;;;;;;;5374869;26;20012;-50
2024/04/22 12:40:29;;;;;;;3.42;1.30;;;;;;;;;;5375278;26;20019;-55
2024/04/22 12:42:55;;;;;;;3.13;1.08;;;;;;;;;;5373280;26;20004;-52
2024/04/22 12:45:21;;;;;;;1.92;1.00;;;;;;;;;;5374628;26;20441;-52
2024/04/22 12:50:45;;;;;;;4.05;1.17;;;;;;;;;;5375182;26;20019;-55
2024/04/22 12:53:11;;;;;;;8.35;2.00;;;;;;;;;;5372874;26;20004;-53
2024/04/22 12:55:37;;;;;;;2.03;1.30;;;;;;;;;;5344349;26;20359;-52
2024/04/22 12:58:03;;;;;;;3.00;1.25;;;;;;;;;;5374940;26;20008;-55
2024/04/22 13:00:29;;;;;;;2.80;1.00;;;;;;;;;;5373769;26;20000;-50
2024/04/22 13:02:55;;;;;;;3.38;1.52;;;;;;;;;;5374821;26;20000;-53
2024/04/22 13:05:21;;;;;;;1.02;0.82;;;;;;;;;;5372951;26;20019;-53
2024/04/22 13:07:48;;;;;;;3.00;0.90;;;;;;;;;;5375155;26;20048;-50
2024/04/22 13:10:14;;;;;;;3.85;1.10;;;;;;;;;;5375493;26;20382;-52
2024/04/22 13:12:39;;;;;;;1.73;1.00;;;;;;;;;;5373088;26;20067;-50
2024/04/22 13:15:05;;;;;;;1.73;0.90;;;;;;;;;;5343458;26;20005;-50
2024/04/22 13:17:32;;;;;;;1.73;0.95;;;;;;;;;;5374665;26;20023;-52
2024/04/22 13:19:58;;;;;;;1.20;1.00;;;;;;;;;;5378089;26;20582;-51
2024/04/22 13:22:24;;;;;;;2.83;1.00;;;;;;;;;;5399553;26;20014;-48
2024/04/22 13:24:50;;;;;;;4.40;1.30;;;;;;;;;;5410446;26;20018;-50
2024/04/22 13:27:16;;;;;;;1.67;0.90;;;;;;;;;;5408163;26;20037;-53
2024/04/22 13:29:41;;;;;;;3.67;1.63;;;;;;;;;;5407446;26;20014;-53
2024/04/22 13:32:07;;;;;;;3.28;0.90;;;;;;;;;;5377779;26;20004;-51
2024/04/22 13:34:33;;;;;;;3.35;1.17;;;;;;;;;;5375007;26;20001;-52
2024/04/22 13:36:58;;;;;;;13.70;2.00;;;;;;;;;;5374567;26;20034;-51
2024/04/22 13:39:24;;;;;;;6.65;1.20;;;;;;;;;;5372345;26;20004;-53
2024/04/22 13:41:51;;;;;;;3.50;1.10;;;;;;;;;;5373246;26;20001;-55
2024/04/22 13:44:17;;;;;;;2.90;1.60;;;;;;;;;;5374600;26;20479;-50
2024/04/22 13:46:43;;;;;;;2.70;1.10;;;;;;;;;;5372443;26;20490;-51
2024/04/22 13:49:13;;;;;;;6.22;1.40;;;;;;;;;;5343269;26;20032;-51
2024/04/22 13:51:45;;;;;;;6.82;1.40;;;;;;;;;;5372875;26;20008;-54
2024/04/22 13:54:13;;;;;;;1.85;1.00;;;;;;;;;;5404771;26;20008;-60
2024/04/22 13:56:39;;;;;;;3.45;1.38;;;;;;;;;;5394997;26;20046;-60
2024/04/22 13:59:05;;;;;;;6.18;1.40;;;;;;;;;;5389986;26;20012;-51
2024/04/22 14:01:31;;;;;;;1.73;1.20;;;;;;;;;;5391627;26;20008;-55
2024/04/22 14:03:57;;;;;;;1.50;1.20;;;;;;;;;;5389981;26;20008;-54
2024/04/22 14:06:22;;;;;;;1.40;0.77;;;;;;;;;;5348911;26;20040;-52
2024/04/22 14:08:48;;;;;;;1.92;0.80;;;;;;;;;;5401271;26;20009;-54
2024/04/22 14:11:14;;;;;;;8.18;0.93;;;;;;;;;;5373967;26;20007;-51
2024/04/22 14:13:40;;;;;;;2.47;1.08;;;;;;;;;;5390870;26;20637;-54
2024/04/22 14:16:06;;;;;;;0.90;0.70;;;;;;;;;;5389657;26;20012;-53
2024/04/22 14:18:32;;;;;;;0.68;0.60;;;;;;;;;;5363715;26;20517;-51
2024/04/22 14:20:57;;;;;;;3.03;0.73;;;;;;;;;;5383838;26;20033;-52
2024/04/22 14:23:23;;;;;;;3.33;0.60;;;;;;;;;;5381397;26;20008;-51
2024/04/22 14:25:51;;;;;;;3.42;0.60;;;;;;;;;;5345126;26;20488;-52
2024/04/22 14:28:17;;;;;;;1.05;0.60;;;;;;;;;;5374869;26;20000;-53
2024/04/22 14:30:44;;;;;;;2.50;0.65;;;;;;;;;;5376404;26;20096;-58
2024/04/22 14:33:12;;;;;;;3.60;0.60;;;;;;;;;;5391500;26;20560;-52
2024/04/22 14:35:38;;;;;;;1.00;0.57;;;;;;;;;;5385300;26;20003;-54
2024/04/22 14:38:05;;;;;;;2.97;0.70;;;;;;;;;;5373642;26;20015;-50
2024/04/22 14:40:31;;;;;;;0.82;0.40;;;;;;;;;;5379257;26;20004;-51
2024/04/22 14:42:56;;;;;;;1.25;0.70;;;;;;;;;;5390423;26;20018;-55
2024/04/22 14:45:22;;;;;;;2.20;0.55;;;;;;;;;;5381297;26;20074;-52
2024/04/22 14:47:48;;;;;;;2.08;0.50;;;;;;;;;;5371374;26;20015;-52